createdAt,value
2023-01-11T00:01:09.590Z,93.50
2023-01-11T00:03:13.319Z,93.91
2023-01-11T00:05:16.793Z,93.81
2023-01-11T00:07:20.133Z,93.76
2023-01-11T00:09:23.725Z,93.48
2023-01-11T00:11:27.470Z,93.58
2023-01-11T00:13:32.039Z,93.62
2023-01-11T00:15:38.109Z,93.41
2023-01-11T00:17:42.856Z,93.46
2023-01-11T00:19:46.201Z,93.73
2023-01-11T00:21:50.296Z,93.73
2023-01-11T00:23:53.649Z,93.76
2023-01-11T00:25:56.991Z,93.65
2023-01-11T00:28:00.296Z,93.77
2023-01-11T00:30:03.634Z,93.76
2023-01-11T00:32:06.992Z,93.80
2023-01-11T00:34:11.726Z,93.79
2023-01-11T00:36:15.025Z,93.77
2023-01-11T00:38:38.318Z,93.52
2023-01-11T00:40:41.615Z,93.56
2023-01-11T00:43:02.560Z,93.93
2023-01-11T00:45:24.780Z,93.90
2023-01-11T00:47:46.005Z,94.12
2023-01-11T00:49:50.687Z,94.43
2023-01-11T00:51:54.073Z,94.13
2023-01-11T00:53:57.433Z,94.37
2023-01-11T00:56:00.837Z,94.06
2023-01-11T00:58:04.485Z,93.91
2023-01-11T01:00:09.025Z,93.90
2023-01-11T01:02:13.649Z,94.27
2023-01-11T01:04:17.024Z,94.27
2023-01-11T01:06:21.874Z,94.50
2023-01-11T01:08:25.296Z,94.15
2023-01-11T01:10:28.623Z,93.61
2023-01-11T01:12:49.657Z,94.07
2023-01-11T01:14:52.925Z,94.08
2023-01-11T01:16:57.568Z,94.03
2023-01-11T01:19:00.930Z,94.16
2023-01-11T01:21:04.768Z,94.36
2023-01-11T01:23:09.451Z,94.14
2023-01-11T01:25:12.863Z,94.52
2023-01-11T01:27:17.787Z,94.48
2023-01-11T01:29:21.364Z,95.01
2023-01-11T01:31:24.820Z,94.94
2023-01-11T01:33:28.238Z,95.19
2023-01-11T01:35:31.585Z,94.70
2023-01-11T01:37:34.920Z,94.62
2023-01-11T01:39:39.793Z,94.46
2023-01-11T01:41:43.168Z,94.69
2023-01-11T01:43:50.731Z,94.63
2023-01-11T01:45:56.009Z,94.68
2023-01-11T01:48:02.105Z,94.97
2023-01-11T01:50:10.563Z,94.70
2023-01-11T01:52:13.181Z,95.11
2023-01-11T01:54:21.538Z,94.83
2023-01-11T01:56:31.315Z,94.90
2023-01-11T01:58:38.941Z,94.84
2023-01-11T02:00:45.193Z,95.13
2023-01-11T02:02:50.051Z,94.68
2023-01-11T02:04:56.254Z,94.54
2023-01-11T02:07:01.575Z,94.82
2023-01-11T02:09:18.046Z,94.99
2023-01-11T02:11:33.217Z,94.98
2023-01-11T02:13:45.970Z,94.88
2023-01-11T02:16:07.389Z,94.69
2023-01-11T02:18:13.600Z,95.12
2023-01-11T02:20:45.862Z,95.25
2023-01-11T02:23:31.426Z,95.26
2023-01-11T02:26:29.490Z,95.03
2023-01-11T02:28:41.238Z,95.42
2023-01-11T02:30:54.549Z,95.46
2023-01-11T02:33:09.433Z,95.87
2023-01-11T02:35:21.466Z,95.86
2023-01-11T02:37:35.724Z,96.02
2023-01-11T02:39:48.880Z,96.17
2023-01-11T02:42:18.743Z,97.27
2023-01-11T02:44:45.855Z,97.69
2023-01-11T02:46:55.597Z,98.48
2023-01-11T02:49:05.771Z,99.04
2023-01-11T02:51:14.003Z,98.84
2023-01-11T02:53:24.291Z,99.24
2023-01-11T02:55:33.030Z,99.42
2023-01-11T02:57:39.223Z,99.86
2023-01-11T02:59:44.297Z,100.00
2023-01-11T03:01:49.087Z,100.00
2023-01-11T03:03:53.487Z,100.00
2023-01-11T03:06:03.788Z,100.00
2023-01-11T03:08:19.890Z,100.00
2023-01-11T03:10:39.445Z,100.00
2023-01-11T03:12:55.628Z,100.00
2023-01-11T03:15:09.041Z,100.00
2023-01-11T03:17:23.467Z,100.00
2023-01-11T03:19:35.869Z,100.00
2023-01-11T03:22:01.547Z,100.00
2023-01-11T03:24:15.396Z,100.00
2023-01-11T03:26:29.366Z,100.00
2023-01-11T03:28:39.540Z,100.00
2023-01-11T03:30:51.058Z,100.00
2023-01-11T03:33:02.742Z,100.00
2023-01-11T03:35:17.653Z,100.00
2023-01-11T03:37:26.598Z,100.00
2023-01-11T03:39:34.688Z,100.00
2023-01-11T03:41:42.575Z,100.00
2023-01-11T03:43:49.234Z,100.00
2023-01-11T03:45:57.999Z,100.00
2023-01-11T03:48:05.209Z,100.00
2023-01-11T03:50:12.856Z,100.00
2023-01-11T03:52:21.759Z,100.00
2023-01-11T03:54:27.835Z,100.00
2023-01-11T03:56:39.685Z,100.00
2023-01-11T03:58:43.134Z,100.00
2023-01-11T04:00:47.237Z,100.00
2023-01-11T04:02:53.869Z,100.00
2023-01-11T04:04:57.264Z,100.00
2023-01-11T04:07:00.679Z,100.00
2023-01-11T04:09:04.851Z,100.00
2023-01-11T04:11:08.324Z,100.00
2023-01-11T04:13:12.248Z,100.00
2023-01-11T04:15:15.761Z,100.00
2023-01-11T04:17:19.181Z,100.00
2023-01-11T04:19:24.054Z,100.00
2023-01-11T04:21:27.450Z,100.00
2023-01-11T04:23:30.884Z,100.00
2023-01-11T04:25:34.668Z,100.00
2023-01-11T04:27:38.074Z,100.00
2023-01-11T04:29:41.399Z,100.00
2023-01-11T04:31:44.999Z,100.00
2023-01-11T04:33:48.386Z,100.00
2023-01-11T04:35:53.209Z,100.00
2023-01-11T04:37:57.080Z,100.00
2023-01-11T04:40:00.425Z,100.00
2023-01-11T04:42:21.345Z,100.00
2023-01-11T04:44:25.199Z,100.00
2023-01-11T04:46:28.545Z,100.00
2023-01-11T04:48:33.370Z,100.00
2023-01-11T04:50:36.773Z,100.00
2023-01-11T04:52:41.787Z,100.00
2023-01-11T04:54:45.760Z,100.00
2023-01-11T04:56:49.053Z,100.00
2023-01-11T04:58:52.363Z,100.00
2023-01-11T05:00:55.721Z,100.00
2023-01-11T05:03:00.295Z,100.00
2023-01-11T05:05:03.633Z,100.00
2023-01-11T05:07:07.573Z,100.00
2023-01-11T05:09:14.337Z,100.00
2023-01-11T05:11:18.288Z,100.00
2023-01-11T05:13:22.301Z,100.00
2023-01-11T05:15:25.721Z,100.00
2023-01-11T05:17:29.058Z,100.00
2023-01-11T05:19:32.478Z,100.00
2023-01-11T05:21:39.157Z,100.00
2023-01-11T05:23:43.146Z,100.00
2023-01-11T05:25:48.463Z,100.00
2023-01-11T05:27:51.804Z,100.00
2023-01-11T05:29:55.246Z,100.00
2023-01-11T05:31:58.674Z,100.00
2023-01-11T05:34:02.100Z,100.00
2023-01-11T05:36:08.426Z,100.00
2023-01-11T05:38:11.759Z,100.00
2023-01-11T05:40:15.249Z,100.00
2023-01-11T05:42:19.953Z,100.00
2023-01-11T05:44:40.950Z,100.00
2023-01-11T05:46:45.518Z,100.00
2023-01-11T05:48:49.493Z,100.00
2023-01-11T05:50:54.104Z,100.00
2023-01-11T05:52:57.478Z,100.00
2023-01-11T05:55:00.935Z,100.00
2023-01-11T05:57:04.276Z,100.00
2023-01-11T05:59:09.292Z,100.00
2023-01-11T06:01:13.529Z,100.00
2023-01-11T06:03:17.037Z,100.00
2023-01-11T06:05:20.386Z,100.00
2023-01-11T06:07:25.017Z,100.00
2023-01-11T06:09:28.427Z,100.00
2023-01-11T06:11:31.875Z,100.00
2023-01-11T06:13:35.270Z,100.00
2023-01-11T06:15:40.014Z,100.00
2023-01-11T06:17:43.318Z,100.00
2023-01-11T06:19:46.622Z,100.00
2023-01-11T06:21:49.925Z,100.00
2023-01-11T06:23:55.308Z,100.00
2023-01-11T06:26:02.958Z,100.00
2023-01-11T06:28:06.484Z,100.00
2023-01-11T06:30:11.274Z,100.00
2023-01-11T06:32:16.025Z,100.00
2023-01-11T06:34:19.491Z,100.00
2023-01-11T06:36:22.792Z,100.00
2023-01-11T06:38:27.099Z,100.00
2023-01-11T06:40:30.863Z,100.00
2023-01-11T06:42:34.206Z,100.00
2023-01-11T06:44:37.749Z,100.00
2023-01-11T06:46:41.245Z,100.00
2023-01-11T06:48:46.141Z,100.00
2023-01-11T06:50:50.661Z,100.00
2023-01-11T06:52:55.198Z,100.00
2023-01-11T06:54:58.672Z,100.00
2023-01-11T06:57:02.017Z,100.00
2023-01-11T06:59:07.303Z,100.00
2023-01-11T07:01:11.013Z,100.00
2023-01-11T07:03:14.433Z,100.00
2023-01-11T07:05:19.757Z,100.00
2023-01-11T07:07:23.558Z,100.00
2023-01-11T07:09:27.140Z,100.00
2023-01-11T07:11:31.619Z,100.00
2023-01-11T07:13:35.247Z,100.00
2023-01-11T07:15:39.123Z,100.00
2023-01-11T07:17:42.522Z,100.00
2023-01-11T07:19:45.847Z,100.00
2023-01-11T07:21:50.588Z,100.00
2023-01-11T07:23:53.922Z,100.00
2023-01-11T07:25:57.304Z,100.00
2023-01-11T07:28:02.808Z,100.00
2023-01-11T07:30:09.072Z,100.00
2023-01-11T07:32:13.485Z,100.00
2023-01-11T07:34:17.079Z,100.00
2023-01-11T07:36:20.508Z,100.00
2023-01-11T07:38:25.186Z,100.00
2023-01-11T07:40:28.674Z,100.00
2023-01-11T07:42:49.807Z,100.00
2023-01-11T07:44:53.111Z,100.00
2023-01-11T07:46:56.681Z,100.00
2023-01-11T07:49:00.206Z,100.00
2023-01-11T07:51:03.675Z,100.00
2023-01-11T07:53:07.732Z,100.00
2023-01-11T07:55:12.464Z,100.00
2023-01-11T07:57:15.854Z,100.00
2023-01-11T07:59:19.394Z,100.00
2023-01-11T08:01:23.262Z,100.00
2023-01-11T08:03:26.654Z,100.00
2023-01-11T08:05:30.641Z,100.00
2023-01-11T08:07:33.985Z,100.00
2023-01-11T08:09:37.307Z,100.00
2023-01-11T08:11:59.617Z,100.00
2023-01-11T08:14:20.624Z,100.00
2023-01-11T08:16:24.335Z,100.00
2023-01-11T08:18:27.649Z,100.00
2023-01-11T08:20:31.023Z,100.00
2023-01-11T08:22:34.995Z,100.00
2023-01-11T08:24:38.557Z,100.00
2023-01-11T08:26:43.321Z,100.00
2023-01-11T08:28:47.370Z,100.00
2023-01-11T08:30:50.734Z,100.00
2023-01-11T08:32:54.184Z,100.00
2023-01-11T08:34:57.507Z,100.00
2023-01-11T08:37:02.014Z,100.00
2023-01-11T08:39:05.818Z,100.00
2023-01-11T08:41:10.739Z,100.00
2023-01-11T08:43:15.461Z,100.00
2023-01-11T08:45:18.917Z,100.00
2023-01-11T08:47:23.267Z,100.00
2023-01-11T08:49:26.805Z,100.00
2023-01-11T08:51:30.237Z,100.00
2023-01-11T08:53:33.626Z,100.00
2023-01-11T08:55:36.931Z,100.00
2023-01-11T08:57:40.345Z,100.00
2023-01-11T08:59:45.313Z,100.00
2023-01-11T09:01:48.826Z,100.00
2023-01-11T09:03:52.195Z,100.00
2023-01-11T09:05:56.814Z,100.00
2023-01-11T09:08:00.185Z,100.00
2023-01-11T09:10:03.491Z,100.00
2023-01-11T09:12:07.211Z,100.00
2023-01-11T09:14:10.550Z,100.00
2023-01-11T09:16:15.538Z,100.00
2023-01-11T09:18:18.967Z,100.00
2023-01-11T09:20:22.942Z,100.00
2023-01-11T09:22:27.428Z,100.00
2023-01-11T09:24:31.086Z,100.00
2023-01-11T09:26:35.674Z,100.00
2023-01-11T09:28:39.110Z,100.00
2023-01-11T09:30:42.491Z,100.00
2023-01-11T09:32:47.947Z,100.00
2023-01-11T09:34:54.061Z,100.00
2023-01-11T09:37:00.504Z,100.00
2023-01-11T09:39:08.269Z,100.00
2023-01-11T09:41:26.807Z,100.00
2023-01-11T09:43:31.196Z,100.00
2023-01-11T09:45:35.623Z,100.00
2023-01-11T09:47:42.376Z,100.00
2023-01-11T09:49:54.477Z,100.00
2023-01-11T09:52:06.835Z,100.00
2023-01-11T09:54:18.476Z,100.00
2023-01-11T09:56:27.399Z,100.00
2023-01-11T09:58:51.490Z,100.00
2023-01-11T10:01:01.771Z,100.00
2023-01-11T10:03:33.724Z,100.00
2023-01-11T10:05:57.235Z,100.00
2023-01-11T10:18:30.453Z,100.00
2023-01-11T10:19:31.159Z,100.00
2023-01-11T10:21:29.861Z,100.00
2023-01-11T10:23:42.110Z,100.00
2023-01-11T10:25:51.490Z,100.00
2023-01-11T10:28:00.670Z,100.00
2023-01-11T10:30:30.576Z,100.00
2023-01-11T10:32:53.906Z,100.00
2023-01-11T10:35:13.716Z,100.00
2023-01-11T10:37:40.196Z,100.00
2023-01-11T10:40:14.533Z,100.00
2023-01-11T10:42:21.641Z,100.00
2023-01-11T10:44:32.730Z,100.00
2023-01-11T10:46:40.241Z,100.00
2023-01-11T10:48:45.278Z,100.00
2023-01-11T10:50:55.481Z,100.00
2023-01-11T10:53:07.196Z,100.00
2023-01-11T10:55:15.127Z,100.00
2023-01-11T10:57:26.363Z,100.00
2023-01-11T10:59:58.127Z,100.00
2023-01-11T11:02:10.827Z,100.00
2023-01-11T11:04:47.565Z,100.00
2023-01-11T11:06:59.619Z,99.69
2023-01-11T11:09:13.174Z,99.58
2023-01-11T11:11:23.341Z,99.07
2023-01-11T11:13:38.757Z,98.70
2023-01-11T11:15:50.653Z,98.31
2023-01-11T11:17:55.092Z,97.64
2023-01-11T11:19:58.966Z,97.41
2023-01-11T11:22:02.301Z,96.99
2023-01-11T11:24:14.642Z,97.43
2023-01-11T11:26:18.212Z,98.10
2023-01-11T11:28:30.517Z,97.36
2023-01-11T11:30:37.958Z,97.26
2023-01-11T11:32:47.626Z,96.63
2023-01-11T11:34:52.205Z,96.61
2023-01-11T11:36:59.710Z,96.12
2023-01-11T11:39:10.150Z,95.54
2023-01-11T11:41:17.251Z,93.28
2023-01-11T11:43:23.568Z,91.96
2023-01-11T11:45:27.724Z,91.69
2023-01-11T11:47:32.021Z,91.53
2023-01-11T11:49:36.647Z,90.87
2023-01-11T11:51:42.166Z,89.89
2023-01-11T11:53:51.786Z,89.17
2023-01-11T11:55:55.919Z,88.39
2023-01-11T11:58:05.355Z,86.34
2023-01-11T12:00:23.475Z,86.43
2023-01-11T12:02:30.975Z,85.27
2023-01-11T12:04:47.163Z,85.80
2023-01-11T12:07:06.281Z,85.91
2023-01-11T12:09:13.601Z,86.47
2023-01-11T12:11:21.678Z,86.87
2023-01-11T12:13:32.904Z,86.11
2023-01-11T12:15:36.395Z,85.68
2023-01-11T12:17:39.928Z,86.32
2023-01-11T12:19:45.149Z,85.44
2023-01-11T12:21:48.554Z,85.12
2023-01-11T12:24:10.206Z,84.46
2023-01-11T12:26:28.442Z,85.07
2023-01-11T12:28:55.533Z,87.03
2023-01-11T12:31:08.452Z,86.77
2023-01-11T12:33:35.004Z,86.72
2023-01-11T12:35:48.813Z,86.87
2023-01-11T12:38:05.233Z,85.71
2023-01-11T12:40:18.825Z,85.98
2023-01-11T12:42:42.301Z,85.07
2023-01-11T12:45:14.295Z,84.94
2023-01-11T12:47:49.016Z,83.99
2023-01-11T12:50:02.028Z,81.68
2023-01-11T12:52:27.920Z,80.32
2023-01-11T12:54:53.666Z,77.85
2023-01-11T12:57:13.356Z,73.36
2023-01-11T12:59:35.857Z,72.21
2023-01-11T13:01:50.950Z,70.60
2023-01-11T13:04:34.256Z,69.62
2023-01-11T13:06:43.053Z,71.00
2023-01-11T13:08:58.478Z,70.31
2023-01-11T13:11:12.095Z,67.56
2023-01-11T13:13:19.800Z,69.63
2023-01-11T13:15:34.722Z,67.60
2023-01-11T13:17:45.619Z,66.79
2023-01-11T13:19:58.926Z,67.24
2023-01-11T13:22:05.250Z,66.47
2023-01-11T13:24:13.880Z,66.28
2023-01-11T13:26:24.931Z,67.32
2023-01-11T13:28:34.325Z,65.51
2023-01-11T13:30:37.962Z,65.67
2023-01-11T13:32:46.070Z,66.12
2023-01-11T13:34:54.156Z,64.71
2023-01-11T13:37:02.801Z,62.59
2023-01-11T13:39:13.474Z,64.25
2023-01-11T13:41:21.161Z,63.96
2023-01-11T13:43:33.597Z,65.46
2023-01-11T13:45:41.980Z,65.10
2023-01-11T13:47:51.596Z,65.66
2023-01-11T13:50:02.197Z,66.40
2023-01-11T13:52:12.617Z,67.51
2023-01-11T13:54:20.004Z,69.37
2023-01-11T13:56:29.313Z,69.57
2023-01-11T13:58:38.892Z,70.64
2023-01-11T14:00:44.577Z,71.36
2023-01-11T14:02:52.809Z,71.35
2023-01-11T14:05:02.779Z,72.09
2023-01-11T14:07:19.639Z,72.04
2023-01-11T14:09:49.975Z,72.19
2023-01-11T14:12:01.546Z,72.60
2023-01-11T14:14:19.822Z,71.92
2023-01-11T14:16:30.081Z,71.79
2023-01-11T14:18:44.459Z,72.39
2023-01-11T14:20:57.079Z,72.34
2023-01-11T14:23:11.978Z,72.45
2023-01-11T14:25:21.707Z,72.78
2023-01-11T14:27:47.565Z,73.21
2023-01-11T14:30:19.089Z,73.60
2023-01-11T14:32:47.188Z,73.93
2023-01-11T14:35:09.995Z,73.22
2023-01-11T14:37:32.173Z,73.70
2023-01-11T14:40:08.453Z,72.57
2023-01-11T14:42:36.098Z,73.45
2023-01-11T14:45:04.699Z,72.40
2023-01-11T14:47:36.099Z,72.65
2023-01-11T14:49:59.318Z,71.58
2023-01-11T14:52:08.000Z,72.49
2023-01-11T14:54:16.385Z,71.86
2023-01-11T14:56:49.838Z,72.23
2023-01-11T14:59:04.816Z,71.92
2023-01-11T15:01:11.684Z,72.40
2023-01-11T15:03:42.651Z,72.66
2023-01-11T15:05:49.861Z,73.05
2023-01-11T15:08:09.069Z,72.99
2023-01-11T15:10:50.714Z,73.15
2023-01-11T15:12:57.472Z,74.01
2023-01-11T15:15:04.993Z,73.82
2023-01-11T15:17:37.274Z,74.54
2023-01-11T15:19:43.686Z,75.17
2023-01-11T15:21:53.213Z,75.64
2023-01-11T15:23:58.884Z,76.01
2023-01-11T15:26:04.208Z,76.43
2023-01-11T15:28:38.464Z,76.92
2023-01-11T15:30:52.146Z,76.87
2023-01-11T15:32:55.729Z,77.04
2023-01-11T15:35:17.558Z,77.39
2023-01-11T15:37:49.291Z,77.30
2023-01-11T15:39:57.517Z,77.33
2023-01-11T15:42:25.658Z,76.80
2023-01-11T15:44:48.004Z,77.25
2023-01-11T15:47:14.218Z,76.48
2023-01-11T15:49:55.144Z,76.70
2023-01-11T15:52:18.682Z,76.64
2023-01-11T15:55:00.419Z,76.30
2023-01-11T15:57:20.060Z,76.48
2023-01-11T15:59:59.448Z,76.93
2023-01-11T16:02:44.480Z,76.80
2023-01-11T16:04:50.957Z,77.15
2023-01-11T16:06:59.027Z,77.52
2023-01-11T16:09:13.594Z,77.39
2023-01-11T16:11:23.110Z,76.61
2023-01-11T16:13:54.021Z,76.91
2023-01-11T16:16:10.365Z,76.46
2023-01-11T16:18:15.895Z,76.29
2023-01-11T16:20:25.191Z,75.92
2023-01-11T16:22:29.467Z,76.23
2023-01-11T16:24:44.882Z,76.09
2023-01-11T16:26:53.560Z,75.52
2023-01-11T16:28:59.870Z,75.66
2023-01-11T16:31:05.587Z,74.88
2023-01-11T16:33:15.761Z,74.95
2023-01-11T16:35:22.494Z,74.62
2023-01-11T16:37:30.874Z,74.66
2023-01-11T16:39:34.696Z,74.34
2023-01-11T16:41:46.069Z,74.61
2023-01-11T16:43:55.124Z,74.45
2023-01-11T16:45:59.925Z,74.95
2023-01-11T16:48:05.738Z,75.06
2023-01-11T16:50:20.553Z,75.26
2023-01-11T16:52:38.833Z,75.85
2023-01-11T16:54:42.313Z,75.62
2023-01-11T16:56:49.305Z,76.44
2023-01-11T16:59:06.668Z,76.26
2023-01-11T17:01:13.676Z,76.50
2023-01-11T17:03:20.213Z,75.93
2023-01-11T17:05:25.409Z,75.61
2023-01-11T17:07:30.703Z,75.52
2023-01-11T17:09:34.032Z,75.20
2023-01-11T17:11:41.717Z,75.38
2023-01-11T17:14:18.383Z,75.53
2023-01-11T17:16:25.972Z,75.63
2023-01-11T17:18:29.471Z,75.93
2023-01-11T17:20:34.240Z,76.12
2023-01-11T17:22:38.534Z,76.64
2023-01-11T17:24:44.488Z,76.55
2023-01-11T17:26:51.080Z,77.79
2023-01-11T17:28:58.486Z,77.98
2023-01-11T17:31:01.831Z,77.22
2023-01-11T17:33:06.597Z,77.97
2023-01-11T17:35:16.639Z,78.19
2023-01-11T17:37:20.697Z,77.60
2023-01-11T17:39:28.738Z,77.76
2023-01-11T17:41:50.408Z,77.65
2023-01-11T17:44:11.983Z,77.65
2023-01-11T17:46:19.110Z,78.37
2023-01-11T17:48:24.776Z,77.57
2023-01-11T17:50:30.543Z,77.82
2023-01-11T17:52:43.757Z,77.48
2023-01-11T17:55:01.569Z,77.10
2023-01-11T17:57:06.140Z,77.11
2023-01-11T17:59:20.615Z,77.08
2023-01-11T18:01:25.028Z,76.70
2023-01-11T18:03:29.835Z,76.51
2023-01-11T18:05:33.228Z,76.82
2023-01-11T18:07:43.223Z,76.98
2023-01-11T18:09:49.137Z,76.93
2023-01-11T18:11:54.214Z,76.45
2023-01-11T18:14:01.157Z,77.13
2023-01-11T18:16:05.429Z,76.81
2023-01-11T18:18:45.411Z,76.75
2023-01-11T18:20:48.909Z,76.27
2023-01-11T18:23:03.843Z,76.48
2023-01-11T18:25:18.601Z,76.70
2023-01-11T18:27:27.429Z,76.33
2023-01-11T18:29:52.132Z,76.39
2023-01-11T18:31:57.999Z,76.48
2023-01-11T18:34:02.799Z,76.29
2023-01-11T18:36:20.343Z,76.72
2023-01-11T18:38:25.481Z,76.58
2023-01-11T18:40:30.948Z,76.53
2023-01-11T18:42:34.342Z,76.66
2023-01-11T18:44:39.567Z,76.92
2023-01-11T18:46:42.961Z,77.09
2023-01-11T18:48:46.614Z,77.43
2023-01-11T18:50:54.512Z,77.54
2023-01-11T18:52:57.880Z,77.56
2023-01-11T18:55:01.253Z,77.56
2023-01-11T18:57:04.901Z,77.47
2023-01-11T18:59:08.251Z,77.68
2023-01-11T19:01:11.884Z,77.51
2023-01-11T19:05:23.710Z,77.87
2023-01-11T19:07:28.785Z,78.13
2023-01-11T19:09:32.063Z,78.05
2023-01-11T19:11:35.631Z,78.26
2023-01-11T19:13:38.983Z,78.55
2023-01-11T19:15:42.480Z,78.52
2023-01-11T19:17:45.918Z,78.72
2023-01-11T19:19:49.378Z,78.53
2023-01-11T19:21:52.682Z,78.22
2023-01-11T19:23:59.213Z,78.47
2023-01-11T19:26:02.533Z,78.32
2023-01-11T19:28:06.789Z,78.61
2023-01-11T19:30:12.040Z,78.32
2023-01-11T19:32:15.679Z,78.22
2023-01-11T19:34:19.409Z,78.81
2023-01-11T19:36:22.804Z,78.21
2023-01-11T19:38:26.168Z,77.97
2023-01-11T19:40:30.929Z,77.96
2023-01-11T19:42:34.222Z,78.25
2023-01-11T19:44:39.719Z,78.37
2023-01-11T19:46:43.147Z,77.67
2023-01-11T19:48:46.541Z,77.86
2023-01-11T19:50:49.931Z,77.93
2023-01-11T19:52:53.288Z,77.75
2023-01-11T19:54:56.825Z,77.58
2023-01-11T19:57:01.567Z,78.27
2023-01-11T19:59:05.164Z,77.69
2023-01-11T20:01:12.544Z,78.00
2023-01-11T20:03:15.891Z,77.90
2023-01-11T20:05:19.262Z,77.98
2023-01-11T20:07:22.769Z,78.02
2023-01-11T20:09:26.109Z,77.80
2023-01-11T20:11:29.466Z,77.45
2023-01-11T20:13:34.609Z,77.72
2023-01-11T20:15:38.214Z,78.32
2023-01-11T20:17:41.645Z,78.26
2023-01-11T20:19:46.613Z,77.89
2023-01-11T20:21:49.983Z,78.02
2023-01-11T20:23:53.346Z,77.75
2023-01-11T20:25:59.420Z,78.13
2023-01-11T20:28:02.805Z,77.58
2023-01-11T20:30:10.558Z,77.50
2023-01-11T20:32:39.092Z,77.82
2023-01-11T20:34:37.631Z,77.84
2023-01-11T20:36:42.035Z,77.50
2023-01-11T20:38:46.236Z,77.49
2023-01-11T20:40:49.604Z,77.31
2023-01-11T20:42:52.982Z,77.21
2023-01-11T20:44:56.440Z,77.07
2023-01-11T20:47:01.159Z,77.37
2023-01-11T20:49:04.984Z,77.45
2023-01-11T20:51:08.331Z,77.39
2023-01-11T20:53:14.907Z,77.72
2023-01-11T20:55:18.734Z,77.30
2023-01-11T20:57:22.640Z,77.31
2023-01-11T20:59:25.964Z,77.21
2023-01-11T21:01:30.100Z,77.21
2023-01-11T21:03:34.916Z,77.40
2023-01-11T21:05:38.355Z,77.09
2023-01-11T21:09:45.501Z,77.51
2023-01-11T21:11:53.098Z,77.26
2023-01-11T21:15:59.629Z,77.77
2023-01-11T21:18:03.009Z,78.43
2023-01-11T21:20:09.090Z,78.52
2023-01-11T21:22:12.469Z,78.35
2023-01-11T21:24:16.706Z,78.42
2023-01-11T21:26:20.590Z,78.42
2023-01-11T21:28:24.256Z,78.26
2023-01-11T21:30:27.659Z,78.48
2023-01-11T21:32:30.978Z,78.81
2023-01-11T21:34:34.336Z,78.61
2023-01-11T21:36:39.217Z,79.33
2023-01-11T21:38:42.520Z,79.35
2023-01-11T21:40:45.827Z,79.61
2023-01-11T21:42:49.148Z,79.56
2023-01-11T21:44:52.538Z,79.56
2023-01-11T21:47:00.110Z,79.41
2023-01-11T21:49:03.862Z,79.72
2023-01-11T21:51:09.219Z,79.24
2023-01-11T21:53:13.987Z,79.47
2023-01-11T21:55:17.722Z,79.56
2023-01-11T21:57:21.608Z,79.16
2023-01-11T21:59:25.731Z,79.17
2023-01-11T22:01:29.700Z,79.43
2023-01-11T22:03:33.109Z,79.88
2023-01-11T22:05:36.526Z,80.08
2023-01-11T22:07:42.314Z,80.42
2023-01-11T22:10:03.431Z,81.19
2023-01-11T22:12:07.597Z,81.80
2023-01-11T22:14:11.070Z,81.89
2023-01-11T22:16:16.058Z,81.80
2023-01-11T22:18:19.577Z,81.66
2023-01-11T22:20:22.902Z,81.79
2023-01-11T22:22:26.842Z,81.48
2023-01-11T22:24:30.134Z,81.14
2023-01-11T22:26:38.548Z,81.13
2023-01-11T22:28:56.581Z,81.29
2023-01-11T22:31:05.268Z,80.06
2023-01-11T22:33:08.608Z,79.40
2023-01-11T22:35:11.938Z,79.69
2023-01-11T22:37:15.249Z,79.08
2023-01-11T22:39:19.963Z,79.33
2023-01-11T22:41:24.516Z,79.43
2023-01-11T22:43:30.063Z,79.30
2023-01-11T22:45:33.440Z,79.29
2023-01-11T22:47:36.896Z,78.82
2023-01-11T22:49:40.208Z,78.84
2023-01-11T22:51:44.313Z,79.27
2023-01-11T22:53:49.690Z,79.34
2023-01-11T22:55:53.014Z,79.59
2023-01-11T22:57:57.615Z,79.48
2023-01-11T23:00:04.562Z,79.33
2023-01-11T23:02:08.587Z,79.63
2023-01-11T23:04:13.838Z,79.56
2023-01-11T23:06:18.700Z,79.75
2023-01-11T23:08:21.991Z,79.59
2023-01-11T23:10:25.385Z,79.10
2023-01-11T23:12:46.594Z,79.50
2023-01-11T23:14:49.953Z,78.85
2023-01-11T23:16:54.701Z,79.03
2023-01-11T23:18:58.213Z,79.53
2023-01-11T23:21:03.882Z,79.01
2023-01-11T23:23:07.166Z,79.51
2023-01-11T23:25:11.133Z,79.37
2023-01-11T23:27:14.564Z,79.64
2023-01-11T23:29:18.074Z,79.83
2023-01-11T23:31:23.525Z,80.39
2023-01-11T23:33:28.323Z,80.62
2023-01-11T23:35:31.622Z,80.53
2023-01-11T23:37:34.924Z,81.18
2023-01-11T23:39:38.377Z,81.40
2023-01-11T23:42:00.116Z,82.10
2023-01-11T23:44:05.707Z,82.48
2023-01-11T23:46:23.078Z,81.86
2023-01-11T23:48:28.730Z,81.70
2023-01-11T23:50:32.863Z,81.92
2023-01-11T23:52:36.227Z,81.74
2023-01-11T23:54:39.879Z,82.60
2023-01-11T23:56:43.434Z,81.91
2023-01-11T23:58:46.806Z,81.92
